Wheeler, Illinois
Current Conditions -  °F | °C
As of 8:15 AM on Tuesday 27 Jan 2015 (Local Time) from K1H2 Reporting Station
Haze Haze  
Wind Chill: 27°   Ceiling: 3400
Heat Index: 33°   Visibility: 5mi
Dew Point: 28°   Wind: 6mph
Humidity: 84%   Direction: 320°NW
Pressure: 30.07"   Gusts: NA
Location:  39.05°N, 88.32°W
Report Text: K1H2 271415Z AUTO 32005KT 5SM HZ SCT010 OVC034 01/M02 A3007 RMK AO2 T00051020
Loading
Personal Weather Stations






























Interactive Weather Map New forecast layout! Learn more

10-Day Weather Forecast

Advertisements
Track Severe Weather on mobile